sensor_id;sensor_type;location;lat;lon;timestamp;pressure;altitude;pressure_sealevel;temperature;humidity
6387;BME280;3226;42.162;24.756;2024-02-16T00:02:02;100285.94;;;5.47;67.13
6387;BME280;3226;42.162;24.756;2024-02-16T00:04:30;100291.13;;;5.65;67.23
6387;BME280;3226;42.162;24.756;2024-02-16T00:06:58;100293.56;;;5.68;67.06
6387;BME280;3226;42.162;24.756;2024-02-16T00:09:26;100289.28;;;5.67;67.46
6387;BME280;3226;42.162;24.756;2024-02-16T00:11:56;100281.81;;;5.61;67.01
6387;BME280;3226;42.162;24.756;2024-02-16T00:14:24;100285.41;;;5.58;67.26
6387;BME280;3226;42.162;24.756;2024-02-16T00:16:52;100285.72;;;5.52;67.33
6387;BME280;3226;42.162;24.756;2024-02-16T00:19:20;100257.34;;;5.31;68.22
6387;BME280;3226;42.162;24.756;2024-02-16T00:21:49;100292.06;;;5.46;68.02
6387;BME280;3226;42.162;24.756;2024-02-16T00:24:17;100283.44;;;5.28;68.48
6387;BME280;3226;42.162;24.756;2024-02-16T00:26:45;100273.38;;;5.22;68.72
6387;BME280;3226;42.162;24.756;2024-02-16T00:29:15;100295.91;;;5.39;68.59
6387;BME280;3226;42.162;24.756;2024-02-16T00:31:43;100288.69;;;5.44;68.73
6387;BME280;3226;42.162;24.756;2024-02-16T00:34:11;100288.47;;;5.49;68.60
6387;BME280;3226;42.162;24.756;2024-02-16T00:36:39;100284.13;;;5.49;68.35
6387;BME280;3226;42.162;24.756;2024-02-16T00:39:07;100286.69;;;5.67;67.45
6387;BME280;3226;42.162;24.756;2024-02-16T00:41:35;100260.88;;;5.46;67.48
6387;BME280;3226;42.162;24.756;2024-02-16T00:44:03;100286.84;;;5.64;67.54
6387;BME280;3226;42.162;24.756;2024-02-16T00:46:33;100277.41;;;5.45;67.94
6387;BME280;3226;42.162;24.756;2024-02-16T00:49:01;100284.34;;;5.45;67.97
6387;BME280;3226;42.162;24.756;2024-02-16T00:51:29;100278.19;;;5.30;68.41
6387;BME280;3226;42.162;24.756;2024-02-16T00:53:57;100286.03;;;5.28;68.13
6387;BME280;3226;42.162;24.756;2024-02-16T00:56:25;100281.66;;;5.46;68.46
6387;BME280;3226;42.162;24.756;2024-02-16T00:58:53;100283.94;;;5.70;67.26
6387;BME280;3226;42.162;24.756;2024-02-16T01:01:21;100288.22;;;5.71;66.59
6387;BME280;3226;42.162;24.756;2024-02-16T01:03:50;100289.19;;;5.53;67.52
6387;BME280;3226;42.162;24.756;2024-02-16T01:06:19;100259.09;;;5.31;67.67
6387;BME280;3226;42.162;24.756;2024-02-16T01:08:47;100282.69;;;5.44;67.81
6387;BME280;3226;42.162;24.756;2024-02-16T01:11:15;100279.16;;;5.27;68.20
6387;BME280;3226;42.162;24.756;2024-02-16T01:13:45;100284.13;;;5.32;69.10
6387;BME280;3226;42.162;24.756;2024-02-16T01:16:13;100272.72;;;5.52;68.49
6387;BME280;3226;42.162;24.756;2024-02-16T01:18:41;100285.19;;;5.63;67.83
6387;BME280;3226;42.162;24.756;2024-02-16T01:21:11;100278.19;;;5.63;67.00
6387;BME280;3226;42.162;24.756;2024-02-16T01:23:38;100268.06;;;5.59;67.38
6387;BME280;3226;42.162;24.756;2024-02-16T01:26:06;100276.47;;;5.64;67.17
6387;BME280;3226;42.162;24.756;2024-02-16T01:28:34;100275.25;;;5.54;67.77
6387;BME280;3226;42.162;24.756;2024-02-16T01:31:02;100275.25;;;5.54;67.93
6387;BME280;3226;42.162;24.756;2024-02-16T01:33:30;100275.47;;;5.67;67.53
6387;BME280;3226;42.162;24.756;2024-02-16T01:36:02;100284.53;;;5.75;66.97
6387;BME280;3226;42.162;24.756;2024-02-16T01:38:31;100279.78;;;5.84;66.54
6387;BME280;3226;42.162;24.756;2024-02-16T01:40:59;100276.06;;;5.72;66.31
6387;BME280;3226;42.162;24.756;2024-02-16T01:43:28;100281.59;;;5.82;66.25
6387;BME280;3226;42.162;24.756;2024-02-16T01:45:56;100281.00;;;5.76;66.01
6387;BME280;3226;42.162;24.756;2024-02-16T01:48:26;100269.41;;;5.66;66.37
6387;BME280;3226;42.162;24.756;2024-02-16T01:50:55;100281.75;;;5.78;66.36
6387;BME280;3226;42.162;24.756;2024-02-16T01:53:23;100288.00;;;5.92;66.14
6387;BME280;3226;42.162;24.756;2024-02-16T01:55:52;100269.28;;;5.85;65.24
6387;BME280;3226;42.162;24.756;2024-02-16T01:58:20;100279.50;;;6.06;64.90
6387;BME280;3226;42.162;24.756;2024-02-16T02:00:49;100282.22;;;5.87;64.98
6387;BME280;3226;42.162;24.756;2024-02-16T02:03:17;100278.41;;;5.76;65.39
6387;BME280;3226;42.162;24.756;2024-02-16T02:05:45;100274.13;;;5.75;65.44
6387;BME280;3226;42.162;24.756;2024-02-16T02:08:14;100253.72;;;5.52;66.28
6387;BME280;3226;42.162;24.756;2024-02-16T02:10:42;100264.38;;;5.63;65.90
6387;BME280;3226;42.162;24.756;2024-02-16T02:13:12;100282.88;;;5.90;64.75
6387;BME280;3226;42.162;24.756;2024-02-16T02:15:41;100277.84;;;5.87;65.26
6387;BME280;3226;42.162;24.756;2024-02-16T02:18:09;100275.34;;;5.86;65.11
6387;BME280;3226;42.162;24.756;2024-02-16T02:20:38;100257.13;;;5.70;65.20
6387;BME280;3226;42.162;24.756;2024-02-16T02:23:07;100219.97;;;5.34;64.62
6387;BME280;3226;42.162;24.756;2024-02-16T02:25:35;100276.69;;;5.93;64.90
6387;BME280;3226;42.162;24.756;2024-02-16T02:28:03;100270.25;;;6.00;64.40
6387;BME280;3226;42.162;24.756;2024-02-16T02:30:32;100270.03;;;6.05;64.48
6387;BME280;3226;42.162;24.756;2024-02-16T02:33:00;100270.84;;;6.05;63.96
6387;BME280;3226;42.162;24.756;2024-02-16T02:35:28;100220.03;;;5.66;64.39
6387;BME280;3226;42.162;24.756;2024-02-16T02:37:56;100267.06;;;5.95;64.47
6387;BME280;3226;42.162;24.756;2024-02-16T02:40:26;100264.19;;;6.00;64.09
6387;BME280;3226;42.162;24.756;2024-02-16T02:42:54;100266.19;;;5.94;63.70
6387;BME280;3226;42.162;24.756;2024-02-16T02:45:22;100256.84;;;5.74;64.46
6387;BME280;3226;42.162;24.756;2024-02-16T02:47:50;100259.56;;;5.73;64.72
6387;BME280;3226;42.162;24.756;2024-02-16T02:50:19;100258.63;;;5.74;64.13
6387;BME280;3226;42.162;24.756;2024-02-16T02:52:47;100257.34;;;5.65;64.41
6387;BME280;3226;42.162;24.756;2024-02-16T02:55:15;100255.84;;;5.61;64.58
6387;BME280;3226;42.162;24.756;2024-02-16T02:57:45;100258.34;;;5.62;63.97
6387;BME280;3226;42.162;24.756;2024-02-16T03:00:14;100262.59;;;5.63;64.59
6387;BME280;3226;42.162;24.756;2024-02-16T03:02:42;100247.50;;;5.54;64.10
6387;BME280;3226;42.162;24.756;2024-02-16T03:05:11;100259.84;;;5.50;64.35
6387;BME280;3226;42.162;24.756;2024-02-16T03:07:39;100256.22;;;5.53;64.07
6387;BME280;3226;42.162;24.756;2024-02-16T03:10:07;100238.91;;;5.36;64.87
6387;BME280;3226;42.162;24.756;2024-02-16T03:12:37;100265.38;;;5.60;63.94
6387;BME280;3226;42.162;24.756;2024-02-16T03:15:07;100265.31;;;5.62;63.90
6387;BME280;3226;42.162;24.756;2024-02-16T03:17:36;100240.91;;;5.48;63.75
6387;BME280;3226;42.162;24.756;2024-02-16T03:20:05;100271.28;;;5.46;64.01
6387;BME280;3226;42.162;24.756;2024-02-16T03:22:34;100272.97;;;5.47;64.65
6387;BME280;3226;42.162;24.756;2024-02-16T03:25:02;100273.44;;;5.56;64.31
6387;BME280;3226;42.162;24.756;2024-02-16T03:27:31;100278.63;;;5.56;64.16
6387;BME280;3226;42.162;24.756;2024-02-16T03:30:00;100287.19;;;5.40;64.97
6387;BME280;3226;42.162;24.756;2024-02-16T03:32:31;100280.53;;;5.52;64.38
6387;BME280;3226;42.162;24.756;2024-02-16T03:34:59;100286.69;;;5.33;64.63
6387;BME280;3226;42.162;24.756;2024-02-16T03:37:27;100290.84;;;5.36;65.14
6387;BME280;3226;42.162;24.756;2024-02-16T03:39:55;100291.56;;;5.40;65.51
6387;BME280;3226;42.162;24.756;2024-02-16T03:42:24;100285.81;;;5.33;65.79
6387;BME280;3226;42.162;24.756;2024-02-16T03:44:52;100288.50;;;5.31;66.33
6387;BME280;3226;42.162;24.756;2024-02-16T03:47:20;100290.28;;;5.13;66.36
6387;BME280;3226;42.162;24.756;2024-02-16T03:49:49;100244.59;;;4.91;66.14
6387;BME280;3226;42.162;24.756;2024-02-16T03:52:17;100300.78;;;5.10;66.82
6387;BME280;3226;42.162;24.756;2024-02-16T03:54:45;100288.56;;;5.12;66.88
6387;BME280;3226;42.162;24.756;2024-02-16T03:57:15;100277.41;;;4.92;66.84
6387;BME280;3226;42.162;24.756;2024-02-16T03:59:43;100291.53;;;4.87;67.24
6387;BME280;3226;42.162;24.756;2024-02-16T04:02:11;100295.22;;;5.00;67.79
6387;BME280;3226;42.162;24.756;2024-02-16T04:04:40;100263.47;;;4.58;67.82
6387;BME280;3226;42.162;24.756;2024-02-16T04:07:10;100290.94;;;4.99;68.32
6387;BME280;3226;42.162;24.756;2024-02-16T04:09:38;100297.97;;;5.15;67.65
6387;BME280;3226;42.162;24.756;2024-02-16T04:12:06;100291.63;;;5.03;67.45
6387;BME280;3226;42.162;24.756;2024-02-16T04:14:34;100295.69;;;5.09;67.28
6387;BME280;3226;42.162;24.756;2024-02-16T04:17:02;100300.03;;;5.08;67.44
6387;BME280;3226;42.162;24.756;2024-02-16T04:19:30;100301.25;;;5.01;68.00
6387;BME280;3226;42.162;24.756;2024-02-16T04:21:59;100279.56;;;5.02;67.42
6387;BME280;3226;42.162;24.756;2024-02-16T04:24:29;100308.16;;;4.83;68.06
6387;BME280;3226;42.162;24.756;2024-02-16T04:26:57;100275.06;;;4.51;68.82
6387;BME280;3226;42.162;24.756;2024-02-16T04:29:25;100314.34;;;4.80;68.69
6387;BME280;3226;42.162;24.756;2024-02-16T04:31:53;100316.47;;;4.72;69.60
6387;BME280;3226;42.162;24.756;2024-02-16T04:34:21;100198.50;;;3.86;69.74
6387;BME280;3226;42.162;24.756;2024-02-16T04:36:49;100271.84;;;4.46;69.36
6387;BME280;3226;42.162;24.756;2024-02-16T04:39:17;100317.00;;;4.78;69.95
6387;BME280;3226;42.162;24.756;2024-02-16T04:41:47;100308.88;;;4.86;69.45
6387;BME280;3226;42.162;24.756;2024-02-16T04:44:16;100314.63;;;4.74;69.09
6387;BME280;3226;42.162;24.756;2024-02-16T04:46:44;100317.34;;;4.53;70.67
6387;BME280;3226;42.162;24.756;2024-02-16T04:49:12;100315.34;;;4.77;70.95
6387;BME280;3226;42.162;24.756;2024-02-16T04:51:40;100296.97;;;4.82;69.54
6387;BME280;3226;42.162;24.756;2024-02-16T04:54:08;100312.03;;;4.74;69.41
6387;BME280;3226;42.162;24.756;2024-02-16T04:56:36;100304.91;;;4.79;69.79
6387;BME280;3226;42.162;24.756;2024-02-16T04:59:05;100296.69;;;4.69;69.66
6387;BME280;3226;42.162;24.756;2024-02-16T05:01:33;100321.50;;;4.75;68.93
6387;BME280;3226;42.162;24.756;2024-02-16T05:04:02;100252.03;;;4.26;69.62
6387;BME280;3226;42.162;24.756;2024-02-16T05:06:30;100321.13;;;4.83;68.42
6387;BME280;3226;42.162;24.756;2024-02-16T05:08:58;100321.91;;;4.85;68.60
6387;BME280;3226;42.162;24.756;2024-02-16T05:11:26;100314.47;;;4.96;68.26
6387;BME280;3226;42.162;24.756;2024-02-16T05:13:56;100302.00;;;4.85;68.08
6387;BME280;3226;42.162;24.756;2024-02-16T05:16:26;100328.47;;;4.92;68.27
6387;BME280;3226;42.162;24.756;2024-02-16T05:18:55;100326.59;;;4.96;68.05
6387;BME280;3226;42.162;24.756;2024-02-16T05:21:24;100176.38;;;3.98;68.50
6387;BME280;3226;42.162;24.756;2024-02-16T05:23:52;100314.63;;;4.74;68.82
6387;BME280;3226;42.162;24.756;2024-02-16T05:26:20;100327.84;;;4.87;68.65
6387;BME280;3226;42.162;24.756;2024-02-16T05:28:48;100248.88;;;4.38;68.54
6387;BME280;3226;42.162;24.756;2024-02-16T05:31:17;100280.75;;;4.40;68.95
6387;BME280;3226;42.162;24.756;2024-02-16T05:33:48;100319.47;;;4.45;69.54
6387;BME280;3226;42.162;24.756;2024-02-16T05:36:17;100333.31;;;4.63;69.78
6387;BME280;3226;42.162;24.756;2024-02-16T05:38:47;100339.66;;;4.75;68.99
6387;BME280;3226;42.162;24.756;2024-02-16T05:41:15;100298.00;;;4.41;69.10
6387;BME280;3226;42.162;24.756;2024-02-16T05:43:44;100339.81;;;4.72;69.77
6387;BME280;3226;42.162;24.756;2024-02-16T05:46:13;100350.00;;;4.57;69.37
6387;BME280;3226;42.162;24.756;2024-02-16T05:48:41;100356.28;;;4.71;70.23
6387;BME280;3226;42.162;24.756;2024-02-16T05:51:11;100357.28;;;4.68;69.12
6387;BME280;3226;42.162;24.756;2024-02-16T05:53:40;100360.53;;;4.54;69.82
6387;BME280;3226;42.162;24.756;2024-02-16T05:56:08;100345.31;;;4.46;70.20
6387;BME280;3226;42.162;24.756;2024-02-16T05:58:37;100365.13;;;4.67;70.37
6387;BME280;3226;42.162;24.756;2024-02-16T06:01:05;100258.13;;;4.05;69.21
6387;BME280;3226;42.162;24.756;2024-02-16T06:03:33;100356.41;;;4.87;68.93
6387;BME280;3226;42.162;24.756;2024-02-16T06:06:01;100352.47;;;4.97;68.81
6387;BME280;3226;42.162;24.756;2024-02-16T06:08:31;100355.13;;;4.78;69.30
6387;BME280;3226;42.162;24.756;2024-02-16T06:10:58;100336.94;;;4.59;70.16
6387;BME280;3226;42.162;24.756;2024-02-16T06:13:28;100363.59;;;4.82;70.10
6387;BME280;3226;42.162;24.756;2024-02-16T06:15:56;100362.31;;;4.90;69.55
6387;BME280;3226;42.162;24.756;2024-02-16T06:18:24;100363.66;;;5.17;68.71
6387;BME280;3226;42.162;24.756;2024-02-16T06:20:56;100320.69;;;4.92;68.33
6387;BME280;3226;42.162;24.756;2024-02-16T06:23:24;100368.06;;;5.15;67.87
6387;BME280;3226;42.162;24.756;2024-02-16T06:25:53;100351.53;;;5.17;68.26
6387;BME280;3226;42.162;24.756;2024-02-16T06:28:21;100369.88;;;5.49;67.70
6387;BME280;3226;42.162;24.756;2024-02-16T06:30:49;100373.06;;;5.55;67.04
6387;BME280;3226;42.162;24.756;2024-02-16T06:33:17;100370.53;;;5.53;66.55
6387;BME280;3226;42.162;24.756;2024-02-16T06:35:46;100376.94;;;5.63;66.42
6387;BME280;3226;42.162;24.756;2024-02-16T06:38:17;100372.72;;;5.96;66.04
6387;BME280;3226;42.162;24.756;2024-02-16T06:40:45;100363.72;;;6.03;65.34
6387;BME280;3226;42.162;24.756;2024-02-16T06:43:14;100384.97;;;5.94;65.14
6387;BME280;3226;42.162;24.756;2024-02-16T06:45:42;100384.19;;;6.10;64.55
6387;BME280;3226;42.162;24.756;2024-02-16T06:48:10;100381.91;;;6.03;65.11
6387;BME280;3226;42.162;24.756;2024-02-16T06:50:38;100341.69;;;5.93;64.40
6387;BME280;3226;42.162;24.756;2024-02-16T06:53:07;100382.97;;;6.33;64.25
6387;BME280;3226;42.162;24.756;2024-02-16T06:55:34;100379.31;;;6.53;62.96
6387;BME280;3226;42.162;24.756;2024-02-16T06:58:03;100380.41;;;6.81;62.40
6387;BME280;3226;42.162;24.756;2024-02-16T07:00:32;100384.69;;;6.66;61.97
6387;BME280;3226;42.162;24.756;2024-02-16T07:03:02;100387.81;;;6.89;61.89
6387;BME280;3226;42.162;24.756;2024-02-16T07:05:30;100372.66;;;7.12;61.31
6387;BME280;3226;42.162;24.756;2024-02-16T07:08:03;100388.22;;;7.44;59.97
6387;BME280;3226;42.162;24.756;2024-02-16T07:10:33;100388.47;;;7.70;59.08
6387;BME280;3226;42.162;24.756;2024-02-16T07:13:01;100383.34;;;7.82;57.36
6387;BME280;3226;42.162;24.756;2024-02-16T07:15:31;100386.66;;;7.56;59.15
6387;BME280;3226;42.162;24.756;2024-02-16T07:17:59;100356.75;;;7.16;59.34
6387;BME280;3226;42.162;24.756;2024-02-16T07:20:31;100383.72;;;7.91;58.00
6387;BME280;3226;42.162;24.756;2024-02-16T07:22:59;100387.28;;;8.19;57.61
6387;BME280;3226;42.162;24.756;2024-02-16T07:25:27;100378.78;;;8.73;55.86
6387;BME280;3226;42.162;24.756;2024-02-16T07:27:55;100389.19;;;8.31;55.16
6387;BME280;3226;42.162;24.756;2024-02-16T07:30:23;100388.59;;;8.41;56.15
6387;BME280;3226;42.162;24.756;2024-02-16T07:33:04;100391.50;;;8.65;55.30
6387;BME280;3226;42.162;24.756;2024-02-16T07:35:34;100396.91;;;9.04;52.53
6387;BME280;3226;42.162;24.756;2024-02-16T07:38:02;100401.81;;;9.08;53.62
6387;BME280;3226;42.162;24.756;2024-02-16T07:40:31;100394.66;;;8.70;54.35
6387;BME280;3226;42.162;24.756;2024-02-16T07:42:59;100396.81;;;8.20;55.44
6387;BME280;3226;42.162;24.756;2024-02-16T07:45:27;100394.38;;;8.60;56.00
6387;BME280;3226;42.162;24.756;2024-02-16T07:47:55;100403.81;;;9.05;54.50
6387;BME280;3226;42.162;24.756;2024-02-16T07:50:25;100404.97;;;8.86;53.76
6387;BME280;3226;42.162;24.756;2024-02-16T07:52:53;100400.38;;;8.90;54.14
6387;BME280;3226;42.162;24.756;2024-02-16T07:55:21;100398.66;;;8.76;54.02
6387;BME280;3226;42.162;24.756;2024-02-16T07:57:51;100404.50;;;9.34;53.46
6387;BME280;3226;42.162;24.756;2024-02-16T08:00:19;100397.47;;;9.62;52.45
6387;BME280;3226;42.162;24.756;2024-02-16T08:02:47;100385.38;;;9.34;52.16
6387;BME280;3226;42.162;24.756;2024-02-16T08:05:15;100402.94;;;9.98;51.38
6387;BME280;3226;42.162;24.756;2024-02-16T08:07:47;100375.28;;;9.68;50.19
6387;BME280;3226;42.162;24.756;2024-02-16T08:10:18;100389.44;;;9.91;49.86
6387;BME280;3226;42.162;24.756;2024-02-16T08:12:48;100393.94;;;9.76;50.36
6387;BME280;3226;42.162;24.756;2024-02-16T08:15:16;100394.16;;;9.73;51.34
6387;BME280;3226;42.162;24.756;2024-02-16T08:17:50;100401.56;;;10.18;50.54
6387;BME280;3226;42.162;24.756;2024-02-16T08:20:19;100395.13;;;10.61;49.76
6387;BME280;3226;42.162;24.756;2024-02-16T08:22:49;100397.09;;;10.70;48.75
6387;BME280;3226;42.162;24.756;2024-02-16T08:25:17;100392.16;;;10.79;48.36
6387;BME280;3226;42.162;24.756;2024-02-16T08:27:45;100401.13;;;11.12;47.38
6387;BME280;3226;42.162;24.756;2024-02-16T08:30:13;100401.16;;;10.11;48.86
6387;BME280;3226;42.162;24.756;2024-02-16T08:32:41;100404.41;;;9.36;50.75
6387;BME280;3226;42.162;24.756;2024-02-16T08:35:09;100395.81;;;10.26;49.90
6387;BME280;3226;42.162;24.756;2024-02-16T08:37:40;100403.88;;;11.10;48.17
6387;BME280;3226;42.162;24.756;2024-02-16T08:40:12;100405.88;;;11.67;48.13
6387;BME280;3226;42.162;24.756;2024-02-16T08:42:41;100403.34;;;12.01;46.94
6387;BME280;3226;42.162;24.756;2024-02-16T08:45:10;100400.06;;;11.86;47.29
6387;BME280;3226;42.162;24.756;2024-02-16T08:47:39;100390.41;;;11.98;46.01
6387;BME280;3226;42.162;24.756;2024-02-16T08:50:08;100399.53;;;12.28;45.74
6387;BME280;3226;42.162;24.756;2024-02-16T08:52:37;100410.66;;;11.73;46.97
6387;BME280;3226;42.162;24.756;2024-02-16T08:55:05;100377.00;;;11.31;47.12
6387;BME280;3226;42.162;24.756;2024-02-16T08:57:35;100392.97;;;11.28;48.00
6387;BME280;3226;42.162;24.756;2024-02-16T09:00:05;100408.16;;;10.87;49.46
6387;BME280;3226;42.162;24.756;2024-02-16T09:02:34;100408.16;;;10.87;50.20
6387;BME280;3226;42.162;24.756;2024-02-16T09:05:02;100406.09;;;11.04;48.78
6387;BME280;3226;42.162;24.756;2024-02-16T09:07:30;100402.91;;;10.63;49.17
6387;BME280;3226;42.162;24.756;2024-02-16T09:09:58;100401.47;;;11.07;49.36
6387;BME280;3226;42.162;24.756;2024-02-16T09:12:27;100307.81;;;10.98;48.52
6387;BME280;3226;42.162;24.756;2024-02-16T09:14:56;100387.44;;;10.84;49.10
6387;BME280;3226;42.162;24.756;2024-02-16T09:17:24;100374.44;;;10.82;49.47
6387;BME280;3226;42.162;24.756;2024-02-16T09:19:53;100413.66;;;11.80;49.28
6387;BME280;3226;42.162;24.756;2024-02-16T09:22:21;100401.38;;;11.33;48.20
6387;BME280;3226;42.162;24.756;2024-02-16T09:25:04;100401.50;;;11.43;48.76
6387;BME280;3226;42.162;24.756;2024-02-16T09:27:32;100398.22;;;12.11;48.33
6387;BME280;3226;42.162;24.756;2024-02-16T09:30:02;100402.72;;;12.77;45.66
6387;BME280;3226;42.162;24.756;2024-02-16T09:32:30;100391.34;;;12.77;45.21
6387;BME280;3226;42.162;24.756;2024-02-16T09:34:58;100390.97;;;12.93;45.50
6387;BME280;3226;42.162;24.756;2024-02-16T09:37:26;100388.16;;;13.50;43.61
6387;BME280;3226;42.162;24.756;2024-02-16T09:39:54;100392.25;;;13.64;43.49
6387;BME280;3226;42.162;24.756;2024-02-16T09:42:23;100375.16;;;13.25;43.35
6387;BME280;3226;42.162;24.756;2024-02-16T09:44:54;100386.41;;;12.39;44.79
6387;BME280;3226;42.162;24.756;2024-02-16T09:47:24;100383.75;;;12.17;46.01
6387;BME280;3226;42.162;24.756;2024-02-16T09:49:55;100384.09;;;13.34;45.15
6387;BME280;3226;42.162;24.756;2024-02-16T09:52:24;100378.25;;;13.63;42.68
6387;BME280;3226;42.162;24.756;2024-02-16T09:54:52;100367.25;;;14.41;41.10
6387;BME280;3226;42.162;24.756;2024-02-16T09:57:20;100376.19;;;14.29;41.27
6387;BME280;3226;42.162;24.756;2024-02-16T09:59:47;100374.84;;;14.03;40.90
6387;BME280;3226;42.162;24.756;2024-02-16T10:02:15;100371.47;;;14.23;40.27
6387;BME280;3226;42.162;24.756;2024-02-16T10:04:45;100366.56;;;14.08;41.09
6387;BME280;3226;42.162;24.756;2024-02-16T10:07:13;100278.34;;;12.44;42.82
6387;BME280;3226;42.162;24.756;2024-02-16T10:09:41;100347.78;;;12.74;43.92
6387;BME280;3226;42.162;24.756;2024-02-16T10:12:09;100353.19;;;13.26;42.30
6387;BME280;3226;42.162;24.756;2024-02-16T10:14:38;100354.53;;;13.84;41.78
6387;BME280;3226;42.162;24.756;2024-02-16T10:17:08;100354.53;;;14.15;42.13
6387;BME280;3226;42.162;24.756;2024-02-16T10:19:36;100340.84;;;13.91;40.67
6387;BME280;3226;42.162;24.756;2024-02-16T10:22:10;100311.38;;;13.66;41.20
6387;BME280;3226;42.162;24.756;2024-02-16T10:24:39;100337.00;;;13.73;41.01
6387;BME280;3226;42.162;24.756;2024-02-16T10:27:13;100316.69;;;13.54;40.65
6387;BME280;3226;42.162;24.756;2024-02-16T10:29:43;100334.03;;;13.57;41.49
6387;BME280;3226;42.162;24.756;2024-02-16T10:32:12;100341.66;;;12.73;42.43
6387;BME280;3226;42.162;24.756;2024-02-16T10:34:41;100341.06;;;12.70;42.71
6387;BME280;3226;42.162;24.756;2024-02-16T10:37:11;100303.31;;;12.38;42.63
6387;BME280;3226;42.162;24.756;2024-02-16T10:39:40;100319.34;;;12.68;42.35
6387;BME280;3226;42.162;24.756;2024-02-16T10:42:09;100334.44;;;12.87;42.45
6387;BME280;3226;42.162;24.756;2024-02-16T10:44:39;100309.81;;;13.21;40.52
6387;BME280;3226;42.162;24.756;2024-02-16T10:47:09;100328.34;;;13.19;40.92
6387;BME280;3226;42.162;24.756;2024-02-16T10:49:37;100318.06;;;13.49;40.14
6387;BME280;3226;42.162;24.756;2024-02-16T10:52:06;100313.34;;;13.52;40.99
6387;BME280;3226;42.162;24.756;2024-02-16T10:54:37;100315.84;;;12.79;41.55
6387;BME280;3226;42.162;24.756;2024-02-16T10:57:08;100315.63;;;13.24;40.52
6387;BME280;3226;42.162;24.756;2024-02-16T10:59:41;100306.84;;;13.35;40.11
6387;BME280;3226;42.162;24.756;2024-02-16T11:02:10;100316.41;;;13.36;40.96
6387;BME280;3226;42.162;24.756;2024-02-16T11:04:39;100278.50;;;13.39;40.45
6387;BME280;3226;42.162;24.756;2024-02-16T11:07:11;100309.00;;;13.63;41.31
6387;BME280;3226;42.162;24.756;2024-02-16T11:09:42;100311.41;;;13.44;41.35
6387;BME280;3226;42.162;24.756;2024-02-16T11:12:12;100289.22;;;13.05;41.40
6387;BME280;3226;42.162;24.756;2024-02-16T11:14:43;100295.09;;;13.39;41.86
6387;BME280;3226;42.162;24.756;2024-02-16T11:17:12;100300.31;;;13.72;40.27
6387;BME280;3226;42.162;24.756;2024-02-16T11:19:41;100295.91;;;13.51;40.62
6387;BME280;3226;42.162;24.756;2024-02-16T11:22:10;100300.09;;;13.54;40.70
6387;BME280;3226;42.162;24.756;2024-02-16T11:24:44;100299.88;;;13.67;40.92
6387;BME280;3226;42.162;24.756;2024-02-16T11:27:13;100296.78;;;13.19;40.59
6387;BME280;3226;42.162;24.756;2024-02-16T11:29:46;100292.94;;;12.69;40.95
6387;BME280;3226;42.162;24.756;2024-02-16T11:32:15;100291.91;;;12.93;40.77
6387;BME280;3226;42.162;24.756;2024-02-16T11:34:43;100288.25;;;12.84;40.94
6387;BME280;3226;42.162;24.756;2024-02-16T11:37:13;100294.97;;;12.77;41.47
6387;BME280;3226;42.162;24.756;2024-02-16T11:39:41;100287.47;;;12.94;40.97
6387;BME280;3226;42.162;24.756;2024-02-16T11:42:13;100284.56;;;13.29;41.40
6387;BME280;3226;42.162;24.756;2024-02-16T11:44:51;100273.88;;;13.52;40.12
6387;BME280;3226;42.162;24.756;2024-02-16T11:47:20;100265.19;;;13.52;39.62
6387;BME280;3226;42.162;24.756;2024-02-16T11:50:03;100271.00;;;13.34;40.41
6387;BME280;3226;42.162;24.756;2024-02-16T11:52:31;100247.84;;;13.49;40.48
6387;BME280;3226;42.162;24.756;2024-02-16T11:55:00;100276.47;;;13.73;39.81
6387;BME280;3226;42.162;24.756;2024-02-16T11:57:32;100266.50;;;14.08;38.83
6387;BME280;3226;42.162;24.756;2024-02-16T12:00:01;100279.00;;;14.16;39.16
6387;BME280;3226;42.162;24.756;2024-02-16T12:02:35;100258.63;;;13.77;39.24
6387;BME280;3226;42.162;24.756;2024-02-16T12:05:04;100271.00;;;13.55;40.79
6387;BME280;3226;42.162;24.756;2024-02-16T12:07:33;100233.94;;;13.68;39.35
6387;BME280;3226;42.162;24.756;2024-02-16T12:10:07;100258.94;;;13.94;39.28
6387;BME280;3226;42.162;24.756;2024-02-16T12:12:37;100277.00;;;13.98;39.27
6387;BME280;3226;42.162;24.756;2024-02-16T12:15:06;100244.38;;;13.80;39.13
6387;BME280;3226;42.162;24.756;2024-02-16T12:17:35;100256.13;;;13.76;39.30
6387;BME280;3226;42.162;24.756;2024-02-16T12:20:11;100258.28;;;13.61;39.31
6387;BME280;3226;42.162;24.756;2024-02-16T12:22:39;100253.16;;;13.38;40.17
6387;BME280;3226;42.162;24.756;2024-02-16T12:25:08;100255.16;;;13.24;40.26
6387;BME280;3226;42.162;24.756;2024-02-16T12:27:37;100255.09;;;13.36;39.96
6387;BME280;3226;42.162;24.756;2024-02-16T12:30:07;100252.53;;;13.24;40.15
6387;BME280;3226;42.162;24.756;2024-02-16T12:32:35;100250.81;;;13.13;40.39
6387;BME280;3226;42.162;24.756;2024-02-16T12:35:03;100257.94;;;13.01;40.93
6387;BME280;3226;42.162;24.756;2024-02-16T12:37:32;100251.25;;;13.19;40.74
6387;BME280;3226;42.162;24.756;2024-02-16T12:40:02;100254.53;;;12.90;41.30
6387;BME280;3226;42.162;24.756;2024-02-16T12:42:30;100250.75;;;13.04;41.36
6387;BME280;3226;42.162;24.756;2024-02-16T12:44:59;100247.97;;;12.84;41.96
6387;BME280;3226;42.162;24.756;2024-02-16T12:47:27;100178.28;;;12.47;41.57
6387;BME280;3226;42.162;24.756;2024-02-16T12:49:56;100227.78;;;13.06;40.77
6387;BME280;3226;42.162;24.756;2024-02-16T12:52:25;100254.06;;;12.84;41.42
6387;BME280;3226;42.162;24.756;2024-02-16T12:54:53;100250.03;;;13.01;41.25
6387;BME280;3226;42.162;24.756;2024-02-16T12:57:25;100251.63;;;13.14;41.17
6387;BME280;3226;42.162;24.756;2024-02-16T12:59:55;100251.25;;;13.19;41.27
6387;BME280;3226;42.162;24.756;2024-02-16T13:02:24;100249.63;;;12.85;41.97
6387;BME280;3226;42.162;24.756;2024-02-16T13:04:53;100248.19;;;12.92;41.70
6387;BME280;3226;42.162;24.756;2024-02-16T13:07:23;100244.09;;;12.67;41.84
6387;BME280;3226;42.162;24.756;2024-02-16T13:09:52;100249.94;;;12.70;42.32
6387;BME280;3226;42.162;24.756;2024-02-16T13:12:20;100249.38;;;12.88;41.94
6387;BME280;3226;42.162;24.756;2024-02-16T13:14:50;100240.75;;;12.97;41.80
6387;BME280;3226;42.162;24.756;2024-02-16T13:17:18;100227.38;;;12.89;42.87